Concord, Alabama
Current Conditions -  °F | °C
As of 12:53 PM on Thursday 18 Dec 2014 (Local Time) from KBHM Reporting Station
Overcast Overcast  
Wind Chill: 45°   Ceiling: 7000
Heat Index: 48°   Visibility: 10mi
Dew Point: 33°   Wind: 6mph
Humidity: 56%   Direction: 290°WNW
Pressure: 30.18"   Gusts: NA
Location:  33.3984°N, 87.0224°W
Report Text: KBHM 181853Z 29005KT 10SM FEW045 BKN070 OVC100 09/01 A3018 RMK AO2 SLP221 T00890006
Loading
Personal Weather Stations






























Interactive Weather Map New forecast layout! Learn more

10-Day Weather Forecast

Advertisements
Track Severe Weather on mobile